sensor_id;sensor_type;location;lat;lon;timestamp;pressure;altitude;pressure_sealevel;temperature;humidity
74790;BME280;63318;52.406;13.416;2023-01-25T00:01:05;103501.20;;;1.68;79.42
74790;BME280;63318;52.406;13.416;2023-01-25T00:03:34;103498.85;;;1.67;79.53
74790;BME280;63318;52.406;13.416;2023-01-25T00:06:02;103489.61;;;1.67;79.73
74790;BME280;63318;52.406;13.416;2023-01-25T00:08:31;103486.33;;;1.67;79.55
74790;BME280;63318;52.406;13.416;2023-01-25T00:11:00;103476.86;;;1.66;80.01
74790;BME280;63318;52.406;13.416;2023-01-25T00:13:28;103470.80;;;1.66;79.79
74790;BME280;63318;52.406;13.416;2023-01-25T00:16:02;103467.86;;;1.67;79.86
74790;BME280;63318;52.406;13.416;2023-01-25T00:18:31;103462.79;;;1.66;79.92
74790;BME280;63318;52.406;13.416;2023-01-25T00:20:59;103462.56;;;1.67;80.02
74790;BME280;63318;52.406;13.416;2023-01-25T00:23:38;103458.98;;;1.66;80.23
74790;BME280;63318;52.406;13.416;2023-01-25T00:26:07;103452.01;;;1.67;79.70
74790;BME280;63318;52.406;13.416;2023-01-25T00:28:36;103449.79;;;1.67;79.69
74790;BME280;63318;52.406;13.416;2023-01-25T00:31:06;103442.59;;;1.67;79.97
74790;BME280;63318;52.406;13.416;2023-01-25T00:33:43;103437.12;;;1.67;80.16
74790;BME280;63318;52.406;13.416;2023-01-25T00:36:33;103429.91;;;1.68;80.39
74790;BME280;63318;52.406;13.416;2023-01-25T00:39:08;103419.11;;;1.68;80.01
74790;BME280;63318;52.406;13.416;2023-01-25T00:41:38;103402.49;;;1.68;80.08
74790;BME280;63318;52.406;13.416;2023-01-25T00:44:07;103393.88;;;1.69;79.85
74790;BME280;63318;52.406;13.416;2023-01-25T00:46:36;103388.77;;;1.68;79.76
74790;BME280;63318;52.406;13.416;2023-01-25T00:49:04;103384.54;;;1.69;79.92
74790;BME280;63318;52.406;13.416;2023-01-25T00:51:34;103385.84;;;1.69;80.10
74790;BME280;63318;52.406;13.416;2023-01-25T00:54:03;103388.20;;;1.69;79.95
74790;BME280;63318;52.406;13.416;2023-01-25T00:56:32;103382.48;;;1.69;79.90
74790;BME280;63318;52.406;13.416;2023-01-25T00:59:00;103377.73;;;1.69;79.84
74790;BME280;63318;52.406;13.416;2023-01-25T01:01:29;103375.46;;;1.70;79.94
74790;BME280;63318;52.406;13.416;2023-01-25T01:03:57;103373.25;;;1.70;80.13
74790;BME280;63318;52.406;13.416;2023-01-25T01:06:26;103369.24;;;1.70;79.92
74790;BME280;63318;52.406;13.416;2023-01-25T01:08:55;103372.49;;;1.71;80.26
74790;BME280;63318;52.406;13.416;2023-01-25T01:11:24;103373.36;;;1.71;80.25
74790;BME280;63318;52.406;13.416;2023-01-25T01:13:52;103374.78;;;1.72;80.52
74790;BME280;63318;52.406;13.416;2023-01-25T01:16:24;103377.95;;;1.71;80.08
74790;BME280;63318;52.406;13.416;2023-01-25T01:18:53;103381.19;;;1.71;80.48
74790;BME280;63318;52.406;13.416;2023-01-25T01:21:22;103380.33;;;1.73;80.09
74790;BME280;63318;52.406;13.416;2023-01-25T01:23:51;103385.41;;;1.73;80.22
74790;BME280;63318;52.406;13.416;2023-01-25T01:26:21;103386.10;;;1.73;79.83
74790;BME280;63318;52.406;13.416;2023-01-25T01:28:51;103382.27;;;1.73;80.20
74790;BME280;63318;52.406;13.416;2023-01-25T01:31:21;103378.98;;;1.73;80.07
74790;BME280;63318;52.406;13.416;2023-01-25T01:33:52;103376.73;;;1.74;80.31
74790;BME280;63318;52.406;13.416;2023-01-25T01:36:22;103377.03;;;1.74;80.22
74790;BME280;63318;52.406;13.416;2023-01-25T01:38:51;103376.08;;;1.75;80.17
74790;BME280;63318;52.406;13.416;2023-01-25T01:41:21;103375.34;;;1.75;80.19
74790;BME280;63318;52.406;13.416;2023-01-25T01:43:49;103374.23;;;1.75;80.52
74790;BME280;63318;52.406;13.416;2023-01-25T01:46:22;103372.94;;;1.75;80.63
74790;BME280;63318;52.406;13.416;2023-01-25T01:48:55;103372.91;;;1.75;80.24
74790;BME280;63318;52.406;13.416;2023-01-25T01:51:31;103378.02;;;1.76;80.40
74790;BME280;63318;52.406;13.416;2023-01-25T01:54:06;103375.14;;;1.75;80.26
74790;BME280;63318;52.406;13.416;2023-01-25T01:56:39;103373.84;;;1.75;80.36
74790;BME280;63318;52.406;13.416;2023-01-25T01:59:11;103369.86;;;1.75;80.42
74790;BME280;63318;52.406;13.416;2023-01-25T02:01:41;103366.08;;;1.75;80.19
74790;BME280;63318;52.406;13.416;2023-01-25T02:04:11;103367.11;;;1.75;80.28
74790;BME280;63318;52.406;13.416;2023-01-25T02:06:45;103364.58;;;1.75;80.37
74790;BME280;63318;52.406;13.416;2023-01-25T02:09:16;103363.66;;;1.75;80.49
74790;BME280;63318;52.406;13.416;2023-01-25T02:11:45;103367.52;;;1.74;80.41
74790;BME280;63318;52.406;13.416;2023-01-25T02:14:16;103364.02;;;1.75;80.29
74790;BME280;63318;52.406;13.416;2023-01-25T02:16:45;103366.51;;;1.76;80.59
74790;BME280;63318;52.406;13.416;2023-01-25T02:19:19;103367.79;;;1.76;80.54
74790;BME280;63318;52.406;13.416;2023-01-25T02:21:53;103366.44;;;1.76;80.79
74790;BME280;63318;52.406;13.416;2023-01-25T02:24:27;103363.86;;;1.76;80.49
74790;BME280;63318;52.406;13.416;2023-01-25T02:27:00;103359.42;;;1.77;80.87
74790;BME280;63318;52.406;13.416;2023-01-25T02:29:30;103357.73;;;1.78;80.63
74790;BME280;63318;52.406;13.416;2023-01-25T02:32:03;103354.94;;;1.78;80.66
74790;BME280;63318;52.406;13.416;2023-01-25T02:34:32;103357.64;;;1.78;80.55
74790;BME280;63318;52.406;13.416;2023-01-25T02:37:00;103354.12;;;1.79;80.61
74790;BME280;63318;52.406;13.416;2023-01-25T02:39:29;103357.58;;;1.79;80.69
74790;BME280;63318;52.406;13.416;2023-01-25T02:41:58;103353.29;;;1.78;80.65
74790;BME280;63318;52.406;13.416;2023-01-25T02:44:29;103353.44;;;1.79;80.71
74790;BME280;63318;52.406;13.416;2023-01-25T02:46:59;103351.79;;;1.79;80.31
74790;BME280;63318;52.406;13.416;2023-01-25T02:49:28;103347.20;;;1.79;80.64
74790;BME280;63318;52.406;13.416;2023-01-25T02:51:56;103341.58;;;1.78;80.87
74790;BME280;63318;52.406;13.416;2023-01-25T02:54:25;103341.19;;;1.79;80.52
74790;BME280;63318;52.406;13.416;2023-01-25T02:56:53;103340.29;;;1.79;80.83
74790;BME280;63318;52.406;13.416;2023-01-25T02:59:23;103330.88;;;1.78;80.86
74790;BME280;63318;52.406;13.416;2023-01-25T03:01:51;103334.73;;;1.77;80.65
74790;BME280;63318;52.406;13.416;2023-01-25T03:04:20;103329.09;;;1.77;80.41
74790;BME280;63318;52.406;13.416;2023-01-25T03:06:48;103325.80;;;1.77;80.72
74790;BME280;63318;52.406;13.416;2023-01-25T03:09:17;103329.44;;;1.77;80.89
74790;BME280;63318;52.406;13.416;2023-01-25T03:11:45;103325.27;;;1.77;80.51
74790;BME280;63318;52.406;13.416;2023-01-25T03:14:13;103325.25;;;1.77;80.52
74790;BME280;63318;52.406;13.416;2023-01-25T03:16:43;103325.15;;;1.76;80.66
74790;BME280;63318;52.406;13.416;2023-01-25T03:19:12;103317.96;;;1.75;80.56
74790;BME280;63318;52.406;13.416;2023-01-25T03:21:40;103315.52;;;1.74;80.77
74790;BME280;63318;52.406;13.416;2023-01-25T03:24:11;103314.11;;;1.74;80.75
74790;BME280;63318;52.406;13.416;2023-01-25T03:26:40;103319.39;;;1.74;80.83
74790;BME280;63318;52.406;13.416;2023-01-25T03:29:08;103315.79;;;1.73;81.08
74790;BME280;63318;52.406;13.416;2023-01-25T03:31:36;103312.94;;;1.73;80.61
74790;BME280;63318;52.406;13.416;2023-01-25T03:34:04;103311.62;;;1.73;81.04
74790;BME280;63318;52.406;13.416;2023-01-25T03:36:33;103309.45;;;1.73;80.99
74790;BME280;63318;52.406;13.416;2023-01-25T03:39:01;103308.15;;;1.73;81.10
74790;BME280;63318;52.406;13.416;2023-01-25T03:41:31;103302.70;;;1.73;80.91
74790;BME280;63318;52.406;13.416;2023-01-25T03:43:59;103300.95;;;1.72;80.96
74790;BME280;63318;52.406;13.416;2023-01-25T03:46:28;103301.67;;;1.72;81.04
74790;BME280;63318;52.406;13.416;2023-01-25T03:48:56;103304.00;;;1.72;81.06
74790;BME280;63318;52.406;13.416;2023-01-25T03:51:24;103303.30;;;1.72;81.25
74790;BME280;63318;52.406;13.416;2023-01-25T03:53:53;103304.52;;;1.73;81.08
74790;BME280;63318;52.406;13.416;2023-01-25T03:56:21;103301.13;;;1.72;80.96
74790;BME280;63318;52.406;13.416;2023-01-25T03:58:50;103297.66;;;1.72;81.15
74790;BME280;63318;52.406;13.416;2023-01-25T04:01:18;103294.20;;;1.72;80.97
74790;BME280;63318;52.406;13.416;2023-01-25T04:03:47;103293.10;;;1.72;81.00
74790;BME280;63318;52.406;13.416;2023-01-25T04:06:15;103289.14;;;1.71;81.04
74790;BME280;63318;52.406;13.416;2023-01-25T04:08:44;103278.60;;;1.71;81.06
74790;BME280;63318;52.406;13.416;2023-01-25T04:11:13;103273.30;;;1.71;81.55
74790;BME280;63318;52.406;13.416;2023-01-25T04:13:42;103276.59;;;1.71;81.42
74790;BME280;63318;52.406;13.416;2023-01-25T04:16:11;103270.93;;;1.71;81.27
74790;BME280;63318;52.406;13.416;2023-01-25T04:18:40;103265.23;;;1.71;81.34
74790;BME280;63318;52.406;13.416;2023-01-25T04:21:08;103261.79;;;1.71;81.77
74790;BME280;63318;52.406;13.416;2023-01-25T04:23:37;103258.08;;;1.72;81.66
74790;BME280;63318;52.406;13.416;2023-01-25T04:26:07;103254.20;;;1.72;81.54
74790;BME280;63318;52.406;13.416;2023-01-25T04:28:37;103250.88;;;1.72;81.49
74790;BME280;63318;52.406;13.416;2023-01-25T04:31:05;103244.68;;;1.72;81.68
74790;BME280;63318;52.406;13.416;2023-01-25T04:33:34;103242.55;;;1.71;81.66
74790;BME280;63318;52.406;13.416;2023-01-25T04:36:04;103240.48;;;1.72;81.87
74790;BME280;63318;52.406;13.416;2023-01-25T04:38:32;103241.16;;;1.73;81.84
74790;BME280;63318;52.406;13.416;2023-01-25T04:41:00;103239.39;;;1.74;81.86
74790;BME280;63318;52.406;13.416;2023-01-25T04:43:29;103234.45;;;1.74;81.84
74790;BME280;63318;52.406;13.416;2023-01-25T04:45:57;103232.19;;;1.74;81.79
74790;BME280;63318;52.406;13.416;2023-01-25T04:48:27;103233.61;;;1.75;82.00
74790;BME280;63318;52.406;13.416;2023-01-25T04:50:56;103232.11;;;1.75;81.86
74790;BME280;63318;52.406;13.416;2023-01-25T04:53:25;103228.66;;;1.75;82.13
74790;BME280;63318;52.406;13.416;2023-01-25T04:55:53;103225.97;;;1.74;81.92
74790;BME280;63318;52.406;13.416;2023-01-25T05:01:09;103220.77;;;1.75;82.04
74790;BME280;63318;52.406;13.416;2023-01-25T05:03:37;103219.61;;;1.76;82.07
74790;BME280;63318;52.406;13.416;2023-01-25T05:06:06;103212.30;;;1.76;82.11
74790;BME280;63318;52.406;13.416;2023-01-25T05:08:34;103211.83;;;1.77;82.27
74790;BME280;63318;52.406;13.416;2023-01-25T05:11:03;103210.35;;;1.77;81.96
74790;BME280;63318;52.406;13.416;2023-01-25T05:13:31;103207.17;;;1.78;82.20
74790;BME280;63318;52.406;13.416;2023-01-25T05:15:59;103204.23;;;1.78;82.47
74790;BME280;63318;52.406;13.416;2023-01-25T05:18:28;103204.90;;;1.79;82.20
74790;BME280;63318;52.406;13.416;2023-01-25T05:20:57;103207.42;;;1.79;82.31
74790;BME280;63318;52.406;13.416;2023-01-25T05:23:25;103206.85;;;1.79;82.60
74790;BME280;63318;52.406;13.416;2023-01-25T05:25:53;103201.28;;;1.80;82.42
74790;BME280;63318;52.406;13.416;2023-01-25T05:28:21;103197.41;;;1.81;82.38
74790;BME280;63318;52.406;13.416;2023-01-25T05:30:50;103196.04;;;1.81;82.35
74790;BME280;63318;52.406;13.416;2023-01-25T05:33:19;103196.52;;;1.82;82.34
74790;BME280;63318;52.406;13.416;2023-01-25T05:35:47;103199.30;;;1.82;82.41
74790;BME280;63318;52.406;13.416;2023-01-25T05:38:16;103200.39;;;1.82;82.27
74790;BME280;63318;52.406;13.416;2023-01-25T05:40:44;103200.36;;;1.82;82.26
74790;BME280;63318;52.406;13.416;2023-01-25T05:43:13;103201.29;;;1.82;82.37
74790;BME280;63318;52.406;13.416;2023-01-25T05:45:42;103201.45;;;1.82;82.39
74790;BME280;63318;52.406;13.416;2023-01-25T05:48:10;103201.38;;;1.81;82.23
74790;BME280;63318;52.406;13.416;2023-01-25T05:50:38;103202.71;;;1.80;82.23
74790;BME280;63318;52.406;13.416;2023-01-25T05:53:07;103199.56;;;1.81;82.53
74790;BME280;63318;52.406;13.416;2023-01-25T05:55:36;103204.97;;;1.82;82.45
74790;BME280;63318;52.406;13.416;2023-01-25T05:58:05;103204.36;;;1.81;82.25
74790;BME280;63318;52.406;13.416;2023-01-25T06:00:34;103205.48;;;1.80;82.24
74790;BME280;63318;52.406;13.416;2023-01-25T06:03:03;103204.85;;;1.79;82.30
74790;BME280;63318;52.406;13.416;2023-01-25T06:05:32;103203.20;;;1.79;82.19
74790;BME280;63318;52.406;13.416;2023-01-25T06:08:01;103200.46;;;1.79;82.48
74790;BME280;63318;52.406;13.416;2023-01-25T06:10:30;103190.55;;;1.80;82.43
74790;BME280;63318;52.406;13.416;2023-01-25T06:13:01;103187.75;;;1.80;82.50
74790;BME280;63318;52.406;13.416;2023-01-25T06:15:30;103186.25;;;1.81;82.51
74790;BME280;63318;52.406;13.416;2023-01-25T06:17:58;103186.38;;;1.81;82.67
74790;BME280;63318;52.406;13.416;2023-01-25T06:20:27;103185.11;;;1.81;82.60
74790;BME280;63318;52.406;13.416;2023-01-25T06:22:56;103181.78;;;1.81;82.53
74790;BME280;63318;52.406;13.416;2023-01-25T06:25:24;103180.52;;;1.81;82.66
74790;BME280;63318;52.406;13.416;2023-01-25T06:27:55;103175.08;;;1.81;82.70
74790;BME280;63318;52.406;13.416;2023-01-25T06:30:23;103174.60;;;1.80;82.58
74790;BME280;63318;52.406;13.416;2023-01-25T06:32:51;103175.80;;;1.78;82.32
74790;BME280;63318;52.406;13.416;2023-01-25T06:35:20;103170.80;;;1.76;82.78
74790;BME280;63318;52.406;13.416;2023-01-25T06:37:49;103172.73;;;1.75;82.67
74790;BME280;63318;52.406;13.416;2023-01-25T06:40:18;103174.95;;;1.75;82.43
74790;BME280;63318;52.406;13.416;2023-01-25T06:42:46;103179.84;;;1.75;82.96
74790;BME280;63318;52.406;13.416;2023-01-25T06:45:15;103186.09;;;1.75;82.63
74790;BME280;63318;52.406;13.416;2023-01-25T06:47:44;103187.21;;;1.75;82.71
74790;BME280;63318;52.406;13.416;2023-01-25T06:50:13;103183.52;;;1.75;82.75
74790;BME280;63318;52.406;13.416;2023-01-25T06:52:41;103175.94;;;1.74;82.88
74790;BME280;63318;52.406;13.416;2023-01-25T06:55:10;103167.20;;;1.74;82.99
74790;BME280;63318;52.406;13.416;2023-01-25T06:57:39;103165.80;;;1.74;82.70
74790;BME280;63318;52.406;13.416;2023-01-25T07:00:09;103159.42;;;1.73;82.75
74790;BME280;63318;52.406;13.416;2023-01-25T07:02:38;103156.17;;;1.73;82.66
74790;BME280;63318;52.406;13.416;2023-01-25T07:05:08;103151.17;;;1.72;82.73
74790;BME280;63318;52.406;13.416;2023-01-25T07:07:37;103147.80;;;1.71;82.96
74790;BME280;63318;52.406;13.416;2023-01-25T07:10:07;103145.02;;;1.70;82.79
74790;BME280;63318;52.406;13.416;2023-01-25T07:12:36;103139.45;;;1.69;82.72
74790;BME280;63318;52.406;13.416;2023-01-25T07:15:06;103141.05;;;1.67;82.95
74790;BME280;63318;52.406;13.416;2023-01-25T07:17:35;103135.70;;;1.66;82.75
74790;BME280;63318;52.406;13.416;2023-01-25T07:20:04;103140.06;;;1.65;83.15
74790;BME280;63318;52.406;13.416;2023-01-25T07:22:35;103144.40;;;1.63;83.06
74790;BME280;63318;52.406;13.416;2023-01-25T07:25:04;103141.58;;;1.63;82.94
74790;BME280;63318;52.406;13.416;2023-01-25T07:27:34;103141.62;;;1.62;82.97
74790;BME280;63318;52.406;13.416;2023-01-25T07:30:03;103139.48;;;1.61;82.95
74790;BME280;63318;52.406;13.416;2023-01-25T07:32:31;103134.07;;;1.61;83.22
74790;BME280;63318;52.406;13.416;2023-01-25T07:35:01;103133.97;;;1.60;83.04
74790;BME280;63318;52.406;13.416;2023-01-25T07:37:29;103133.38;;;1.61;83.27
74790;BME280;63318;52.406;13.416;2023-01-25T07:39:57;103122.21;;;1.61;83.12
74790;BME280;63318;52.406;13.416;2023-01-25T07:42:25;103115.81;;;1.61;83.46
74790;BME280;63318;52.406;13.416;2023-01-25T07:44:54;103120.24;;;1.61;83.21
74790;BME280;63318;52.406;13.416;2023-01-25T07:47:22;103117.98;;;1.58;83.08
74790;BME280;63318;52.406;13.416;2023-01-25T07:49:52;103115.06;;;1.56;83.19
74790;BME280;63318;52.406;13.416;2023-01-25T07:52:21;103117.85;;;1.56;83.23
74790;BME280;63318;52.406;13.416;2023-01-25T07:54:50;103116.59;;;1.55;82.98
74790;BME280;63318;52.406;13.416;2023-01-25T07:57:18;103115.11;;;1.54;83.39
74790;BME280;63318;52.406;13.416;2023-01-25T07:59:47;103111.69;;;1.53;83.00
74790;BME280;63318;52.406;13.416;2023-01-25T08:02:16;103107.40;;;1.54;83.45
74790;BME280;63318;52.406;13.416;2023-01-25T08:04:44;103106.10;;;1.54;83.36
74790;BME280;63318;52.406;13.416;2023-01-25T08:07:14;103109.13;;;1.55;83.20
74790;BME280;63318;52.406;13.416;2023-01-25T08:09:43;103102.05;;;1.55;83.35
74790;BME280;63318;52.406;13.416;2023-01-25T08:12:11;103102.82;;;1.54;83.45
74790;BME280;63318;52.406;13.416;2023-01-25T08:14:39;103097.52;;;1.54;83.42
74790;BME280;63318;52.406;13.416;2023-01-25T08:17:07;103096.52;;;1.53;83.42
74790;BME280;63318;52.406;13.416;2023-01-25T08:19:36;103090.13;;;1.52;83.49
74790;BME280;63318;52.406;13.416;2023-01-25T08:22:04;103086.52;;;1.49;83.49
74790;BME280;63318;52.406;13.416;2023-01-25T08:24:34;103087.16;;;1.49;83.81
74790;BME280;63318;52.406;13.416;2023-01-25T08:27:03;103086.20;;;1.49;83.63
74790;BME280;63318;52.406;13.416;2023-01-25T08:29:32;103086.44;;;1.49;83.17
74790;BME280;63318;52.406;13.416;2023-01-25T08:32:01;103084.98;;;1.47;83.77
74790;BME280;63318;52.406;13.416;2023-01-25T08:34:29;103080.77;;;1.45;83.52
74790;BME280;63318;52.406;13.416;2023-01-25T08:36:57;103075.23;;;1.46;83.64
74790;BME280;63318;52.406;13.416;2023-01-25T08:39:26;103073.86;;;1.45;83.67
74790;BME280;63318;52.406;13.416;2023-01-25T08:41:55;103075.73;;;1.44;83.84
74790;BME280;63318;52.406;13.416;2023-01-25T08:44:23;103081.95;;;1.44;83.77
74790;BME280;63318;52.406;13.416;2023-01-25T08:46:52;103080.09;;;1.44;83.49
74790;BME280;63318;52.406;13.416;2023-01-25T08:49:21;103076.46;;;1.44;83.21
74790;BME280;63318;52.406;13.416;2023-01-25T08:51:50;103072.95;;;1.45;83.71
74790;BME280;63318;52.406;13.416;2023-01-25T08:54:18;103077.42;;;1.46;84.00
74790;BME280;63318;52.406;13.416;2023-01-25T08:56:47;103076.54;;;1.47;83.77
74790;BME280;63318;52.406;13.416;2023-01-25T08:59:15;103076.87;;;1.47;83.96
74790;BME280;63318;52.406;13.416;2023-01-25T09:01:43;103072.46;;;1.48;83.97
74790;BME280;63318;52.406;13.416;2023-01-25T09:04:12;103072.87;;;1.47;83.94
74790;BME280;63318;52.406;13.416;2023-01-25T09:06:40;103078.34;;;1.48;83.97
74790;BME280;63318;52.406;13.416;2023-01-25T09:09:09;103081.08;;;1.48;83.76
74790;BME280;63318;52.406;13.416;2023-01-25T09:11:38;103078.71;;;1.47;83.77
74790;BME280;63318;52.406;13.416;2023-01-25T09:14:07;103077.08;;;1.47;83.56
74790;BME280;63318;52.406;13.416;2023-01-25T09:16:35;103071.25;;;1.47;83.79
74790;BME280;63318;52.406;13.416;2023-01-25T09:19:05;103071.77;;;1.47;83.67
74790;BME280;63318;52.406;13.416;2023-01-25T09:21:34;103069.79;;;1.47;83.75
74790;BME280;63318;52.406;13.416;2023-01-25T09:24:04;103072.89;;;1.46;83.70
74790;BME280;63318;52.406;13.416;2023-01-25T09:26:33;103074.39;;;1.45;83.86
74790;BME280;63318;52.406;13.416;2023-01-25T09:29:06;103075.95;;;1.44;83.86
74790;BME280;63318;52.406;13.416;2023-01-25T09:31:35;103068.29;;;1.44;83.74
74790;BME280;63318;52.406;13.416;2023-01-25T09:34:04;103066.05;;;1.44;83.78
74790;BME280;63318;52.406;13.416;2023-01-25T09:36:34;103065.35;;;1.42;83.77
74790;BME280;63318;52.406;13.416;2023-01-25T09:39:03;103061.52;;;1.42;84.16
74790;BME280;63318;52.406;13.416;2023-01-25T09:41:58;103056.34;;;1.43;84.12
74790;BME280;63318;52.406;13.416;2023-01-25T09:44:43;103050.80;;;1.44;84.40
74790;BME280;63318;52.406;13.416;2023-01-25T09:47:20;103042.88;;;1.44;84.16
74790;BME280;63318;52.406;13.416;2023-01-25T09:50:04;103040.91;;;1.46;84.03
74790;BME280;63318;52.406;13.416;2023-01-25T09:53:02;103043.23;;;1.46;84.23
74790;BME280;63318;52.406;13.416;2023-01-25T09:55:34;103043.57;;;1.46;84.26
74790;BME280;63318;52.406;13.416;2023-01-25T09:58:03;103041.46;;;1.47;84.02
74790;BME280;63318;52.406;13.416;2023-01-25T10:00:34;103040.42;;;1.48;84.31
74790;BME280;63318;52.406;13.416;2023-01-25T10:03:12;103036.16;;;1.49;84.56
74790;BME280;63318;52.406;13.416;2023-01-25T10:05:46;103038.95;;;1.51;84.39
74790;BME280;63318;52.406;13.416;2023-01-25T10:08:20;103035.96;;;1.51;84.06
74790;BME280;63318;52.406;13.416;2023-01-25T10:10:57;103034.97;;;1.50;84.17
74790;BME280;63318;52.406;13.416;2023-01-25T10:13:28;103027.13;;;1.50;84.27
74790;BME280;63318;52.406;13.416;2023-01-25T10:16:01;103025.45;;;1.50;84.35
74790;BME280;63318;52.406;13.416;2023-01-25T10:18:37;103019.06;;;1.50;84.08
74790;BME280;63318;52.406;13.416;2023-01-25T10:21:11;103015.33;;;1.51;84.28
74790;BME280;63318;52.406;13.416;2023-01-25T10:26:49;103007.85;;;1.54;84.33
74790;BME280;63318;52.406;13.416;2023-01-25T10:29:21;103004.31;;;1.55;84.64
74790;BME280;63318;52.406;13.416;2023-01-25T10:31:51;103001.20;;;1.55;84.38
74790;BME280;63318;52.406;13.416;2023-01-25T10:34:23;102996.05;;;1.54;84.32
74790;BME280;63318;52.406;13.416;2023-01-25T10:36:55;102988.98;;;1.52;84.29
74790;BME280;63318;52.406;13.416;2023-01-25T10:39:25;102982.84;;;1.51;84.16
74790;BME280;63318;52.406;13.416;2023-01-25T10:41:57;102979.79;;;1.51;84.27
74790;BME280;63318;52.406;13.416;2023-01-25T10:44:26;102978.73;;;1.50;84.59
74790;BME280;63318;52.406;13.416;2023-01-25T10:46:59;102973.66;;;1.50;84.72
74790;BME280;63318;52.406;13.416;2023-01-25T10:49:36;102969.48;;;1.51;84.35
74790;BME280;63318;52.406;13.416;2023-01-25T10:52:16;102972.10;;;1.52;84.41
74790;BME280;63318;52.406;13.416;2023-01-25T10:54:45;102970.70;;;1.54;84.20
74790;BME280;63318;52.406;13.416;2023-01-25T10:57:18;102968.69;;;1.54;84.54
74790;BME280;63318;52.406;13.416;2023-01-25T10:59:51;102961.33;;;1.54;84.52
74790;BME280;63318;52.406;13.416;2023-01-25T11:02:42;102956.54;;;1.55;84.14
74790;BME280;63318;52.406;13.416;2023-01-25T11:05:30;102952.08;;;1.54;84.60
74790;BME280;63318;52.406;13.416;2023-01-25T11:08:16;102949.79;;;1.53;84.55
74790;BME280;63318;52.406;13.416;2023-01-25T11:10:48;102953.20;;;1.53;84.51
74790;BME280;63318;52.406;13.416;2023-01-25T11:13:23;102943.77;;;1.53;84.42
74790;BME280;63318;52.406;13.416;2023-01-25T11:15:54;102931.40;;;1.52;84.21
74790;BME280;63318;52.406;13.416;2023-01-25T11:18:50;102924.02;;;1.53;84.68
74790;BME280;63318;52.406;13.416;2023-01-25T11:21:20;102922.41;;;1.54;84.70
74790;BME280;63318;52.406;13.416;2023-01-25T11:24:01;102920.47;;;1.55;84.66
74790;BME280;63318;52.406;13.416;2023-01-25T11:26:31;102920.74;;;1.56;84.73
74790;BME280;63318;52.406;13.416;2023-01-25T11:29:13;102911.09;;;1.56;84.71
74790;BME280;63318;52.406;13.416;2023-01-25T11:31:43;102901.98;;;1.56;84.56
74790;BME280;63318;52.406;13.416;2023-01-25T11:34:15;102892.91;;;1.55;84.51
74790;BME280;63318;52.406;13.416;2023-01-25T11:37:08;102891.91;;;1.55;84.67
74790;BME280;63318;52.406;13.416;2023-01-25T11:39:51;102892.29;;;1.54;84.93
74790;BME280;63318;52.406;13.416;2023-01-25T11:42:31;102884.28;;;1.56;85.08
74790;BME280;63318;52.406;13.416;2023-01-25T11:45:21;102876.08;;;1.56;84.61
74790;BME280;63318;52.406;13.416;2023-01-25T11:48:07;102870.06;;;1.54;84.66
74790;BME280;63318;52.406;13.416;2023-01-25T11:50:43;102869.23;;;1.53;84.60
74790;BME280;63318;52.406;13.416;2023-01-25T11:53:37;102871.13;;;1.53;84.70
74790;BME280;63318;52.406;13.416;2023-01-25T11:56:17;102860.45;;;1.53;84.77
74790;BME280;63318;52.406;13.416;2023-01-25T11:59:01;102847.37;;;1.53;84.79
74790;BME280;63318;52.406;13.416;2023-01-25T12:01:44;102837.97;;;1.52;84.46
74790;BME280;63318;52.406;13.416;2023-01-25T12:04:43;102831.34;;;1.51;84.69
74790;BME280;63318;52.406;13.416;2023-01-25T12:07:30;102828.87;;;1.50;84.42
74790;BME280;63318;52.406;13.416;2023-01-25T12:10:18;102824.31;;;1.50;84.55
74790;BME280;63318;52.406;13.416;2023-01-25T12:12:55;102811.23;;;1.48;84.98
74790;BME280;63318;52.406;13.416;2023-01-25T12:15:47;102800.93;;;1.43;84.73
74790;BME280;63318;52.406;13.416;2023-01-25T12:18:36;102794.91;;;1.42;84.87
74790;BME280;63318;52.406;13.416;2023-01-25T12:21:20;102792.73;;;1.43;84.90
74790;BME280;63318;52.406;13.416;2023-01-25T12:24:02;102788.83;;;1.46;85.09
74790;BME280;63318;52.406;13.416;2023-01-25T12:26:40;102782.05;;;1.47;84.67
74790;BME280;63318;52.406;13.416;2023-01-25T12:29:20;102775.33;;;1.49;84.79
74790;BME280;63318;52.406;13.416;2023-01-25T12:31:55;102772.18;;;1.48;84.78
74790;BME280;63318;52.406;13.416;2023-01-25T12:34:32;102767.23;;;1.46;84.91
74790;BME280;63318;52.406;13.416;2023-01-25T12:37:07;102761.83;;;1.47;84.85
74790;BME280;63318;52.406;13.416;2023-01-25T12:39:41;102763.38;;;1.48;84.92
74790;BME280;63318;52.406;13.416;2023-01-25T12:42:17;102758.66;;;1.48;84.67
74790;BME280;63318;52.406;13.416;2023-01-25T12:44:51;102757.99;;;1.46;84.82
74790;BME280;63318;52.406;13.416;2023-01-25T12:47:24;102755.66;;;1.45;84.79
74790;BME280;63318;52.406;13.416;2023-01-25T12:49:58;102752.00;;;1.45;85.10
74790;BME280;63318;52.406;13.416;2023-01-25T12:52:32;102751.91;;;1.44;85.01
74790;BME280;63318;52.406;13.416;2023-01-25T12:55:03;102744.36;;;1.43;85.01
74790;BME280;63318;52.406;13.416;2023-01-25T12:57:38;102739.64;;;1.43;84.89
74790;BME280;63318;52.406;13.416;2023-01-25T13:00:14;102734.37;;;1.41;84.97
74790;BME280;63318;52.406;13.416;2023-01-25T13:03:10;102731.34;;;1.40;85.24
74790;BME280;63318;52.406;13.416;2023-01-25T13:05:45;102726.88;;;1.41;85.00
74790;BME280;63318;52.406;13.416;2023-01-25T13:08:32;102727.83;;;1.43;85.04
74790;BME280;63318;52.406;13.416;2023-01-25T13:11:10;102723.31;;;1.44;85.30
74790;BME280;63318;52.406;13.416;2023-01-25T13:13:40;102725.58;;;1.45;84.87
74790;BME280;63318;52.406;13.416;2023-01-25T13:19:19;102723.96;;;1.46;85.20
74790;BME280;63318;52.406;13.416;2023-01-25T13:21:50;102723.98;;;1.46;85.02